createdAt,value
2022-08-23T00:01:51.831Z,97853.84
2022-08-23T00:05:09.346Z,97854.30
2022-08-23T00:08:13.349Z,97853.77
2022-08-23T00:11:42.619Z,97853.74
2022-08-23T00:14:52.364Z,97849.00
2022-08-23T00:17:55.434Z,97834.73
2022-08-23T00:20:58.459Z,97827.99
2022-08-23T00:24:01.454Z,97832.89
2022-08-23T00:27:08.966Z,97828.05
2022-08-23T00:30:13.600Z,97822.48
2022-08-23T00:33:17.741Z,97823.77
2022-08-23T00:36:20.705Z,97825.79
2022-08-23T00:39:23.738Z,97823.26
2022-08-23T00:42:49.415Z,97819.52
2022-08-23T00:46:22.147Z,97816.90
2022-08-23T00:49:26.647Z,97826.67
2022-08-23T00:52:38.684Z,97825.91
2022-08-23T00:55:44.213Z,97829.69
2022-08-23T00:58:47.392Z,97836.03
2022-08-23T01:01:50.922Z,97836.34
2022-08-23T01:04:59.446Z,97834.05
2022-08-23T01:08:02.595Z,97839.46
2022-08-23T01:11:19.234Z,97841.15
2022-08-23T01:14:44.617Z,97835.14
2022-08-23T01:17:56.907Z,97832.75
2022-08-23T01:21:10.716Z,97833.80
2022-08-23T01:24:19.245Z,97835.46
2022-08-23T01:27:39.548Z,97841.52
2022-08-23T01:30:44.613Z,97843.05
2022-08-23T01:33:54.513Z,97847.05
2022-08-23T01:36:58.844Z,97846.89
2022-08-23T01:40:02.401Z,97853.19
2022-08-23T01:43:07.269Z,97855.90
2022-08-23T01:46:15.003Z,97855.84
2022-08-23T01:49:18.543Z,97852.41
2022-08-23T01:52:21.516Z,97855.16
2022-08-23T01:55:25.983Z,97851.45
2022-08-23T01:58:32.542Z,97846.42
2022-08-23T02:01:36.913Z,97844.77
2022-08-23T02:04:39.849Z,97844.58
2022-08-23T02:07:43.702Z,97841.58
2022-08-23T02:10:46.717Z,97849.08
2022-08-23T02:13:51.719Z,97847.11
2022-08-23T02:17:03.490Z,97850.37
2022-08-23T02:20:08.900Z,97847.38
2022-08-23T02:23:12.622Z,97846.18
2022-08-23T02:26:15.607Z,97848.67
2022-08-23T02:29:22.524Z,97844.34
2022-08-23T02:32:27.146Z,97841.52
2022-08-23T02:35:33.427Z,97834.33
2022-08-23T02:38:36.345Z,97841.92
2022-08-23T02:41:40.003Z,97849.11
2022-08-23T02:44:43.598Z,97854.65
2022-08-23T02:47:46.822Z,97862.02
2022-08-23T02:51:03.952Z,97861.09
2022-08-23T02:54:07.408Z,97861.20
2022-08-23T02:57:10.858Z,97862.73
2022-08-23T03:00:15.831Z,97863.98
2022-08-23T03:03:20.042Z,97869.88
2022-08-23T03:06:26.609Z,97869.16
2022-08-23T03:09:30.135Z,97867.98
2022-08-23T03:12:33.584Z,97865.88
2022-08-23T03:15:36.531Z,97864.70
2022-08-23T03:18:39.842Z,97865.81
2022-08-23T03:21:43.519Z,97865.32
2022-08-23T03:24:47.509Z,97875.71
2022-08-23T03:27:50.589Z,97870.55
2022-08-23T03:30:53.811Z,97870.50
2022-08-23T03:33:56.814Z,97871.23
2022-08-23T03:36:59.770Z,97879.38
2022-08-23T03:40:07.253Z,97881.52
2022-08-23T03:43:10.528Z,97883.88
2022-08-23T03:46:23.966Z,97881.33
2022-08-23T03:49:30.815Z,97880.56
2022-08-23T03:52:33.831Z,97881.58
2022-08-23T03:55:42.076Z,97886.33
2022-08-23T03:58:46.946Z,97892.52
2022-08-23T04:01:49.950Z,97893.63
2022-08-23T04:04:53.692Z,97892.21
2022-08-23T04:08:27.015Z,97896.52
2022-08-23T04:11:36.723Z,97897.42
2022-08-23T04:14:41.348Z,97895.50
2022-08-23T04:17:44.266Z,97896.66
2022-08-23T04:20:48.390Z,97896.56
2022-08-23T04:23:54.652Z,97904.10
2022-08-23T04:26:57.633Z,97903.88
2022-08-23T04:30:01.704Z,97905.61
2022-08-23T04:33:11.290Z,97905.02
2022-08-23T04:36:15.533Z,97912.27
2022-08-23T04:39:18.614Z,97914.64
2022-08-23T04:42:23.368Z,97910.60
2022-08-23T04:45:27.388Z,97918.78
2022-08-23T04:48:30.338Z,97923.51
2022-08-23T04:51:33.842Z,97924.90
2022-08-23T04:54:36.992Z,97926.23
2022-08-23T04:57:58.660Z,97924.59
2022-08-23T05:01:07.934Z,97921.06
2022-08-23T05:04:11.037Z,97925.61
2022-08-23T05:07:15.686Z,97925.28
2022-08-23T05:10:19.659Z,97931.20
2022-08-23T05:13:26.196Z,97931.40
2022-08-23T05:16:29.333Z,97932.98
2022-08-23T05:19:36.511Z,97937.61
2022-08-23T05:22:47.961Z,97947.69
2022-08-23T05:26:11.782Z,97940.66
2022-08-23T05:29:17.081Z,97945.02
2022-08-23T05:32:23.187Z,97945.06
2022-08-23T05:35:26.204Z,97946.30
2022-08-23T05:38:29.294Z,97952.56
2022-08-23T05:41:38.342Z,97956.77
2022-08-23T05:44:45.249Z,97955.84
2022-08-23T05:47:49.786Z,97953.98
2022-08-23T05:51:18.932Z,97952.33
2022-08-23T05:54:23.062Z,97951.43
2022-08-23T05:57:39.898Z,97953.67
2022-08-23T06:00:43.522Z,97956.81
2022-08-23T06:04:06.172Z,97960.10
2022-08-23T06:07:11.372Z,97963.48
2022-08-23T06:10:15.869Z,97960.41
2022-08-23T06:13:22.414Z,97959.27
2022-08-23T06:16:29.292Z,97965.03
2022-08-23T06:19:32.377Z,97968.86
2022-08-23T06:22:55.303Z,97972.65
2022-08-23T06:25:59.457Z,97972.36
2022-08-23T06:29:10.890Z,97973.12
2022-08-23T06:32:14.002Z,97975.60
2022-08-23T06:35:38.957Z,97978.80
2022-08-23T06:38:57.935Z,97985.31
2022-08-23T06:42:38.494Z,97989.52
2022-08-23T06:45:44.096Z,97996.20
2022-08-23T06:48:57.746Z,98003.73
2022-08-23T06:52:04.390Z,98002.45
2022-08-23T06:55:24.491Z,98000.85
2022-08-23T06:58:38.944Z,98001.62
2022-08-23T07:01:54.369Z,98005.32
2022-08-23T07:05:01.824Z,98004.11
2022-08-23T07:08:04.918Z,98008.13
2022-08-23T07:11:07.966Z,98010.80
2022-08-23T07:14:18.352Z,98011.46
2022-08-23T07:17:28.577Z,98010.50
2022-08-23T07:20:32.141Z,98015.24
2022-08-23T07:23:35.499Z,98014.11
2022-08-23T07:26:43.852Z,98012.74
2022-08-23T07:29:47.167Z,98003.04
2022-08-23T07:32:51.439Z,97999.97
2022-08-23T07:36:05.311Z,97996.23
2022-08-23T07:39:09.662Z,97995.39
2022-08-23T07:42:22.775Z,97994.83
2022-08-23T07:45:30.115Z,97987.88
2022-08-23T07:48:53.380Z,97997.21
2022-08-23T07:52:00.956Z,97996.75
2022-08-23T07:55:04.331Z,97999.95
2022-08-23T07:58:33.245Z,98003.66
2022-08-23T08:01:54.188Z,98008.35
2022-08-23T08:04:58.157Z,98011.64
2022-08-23T08:08:03.117Z,98014.35
2022-08-23T08:11:06.667Z,98012.91
2022-08-23T08:14:10.831Z,98020.48
2022-08-23T08:17:18.539Z,98025.92
2022-08-23T08:20:43.773Z,98025.86
2022-08-23T08:24:07.645Z,98027.20
2022-08-23T08:27:19.709Z,98036.54
2022-08-23T08:30:23.418Z,98040.13
2022-08-23T08:33:30.937Z,98039.62
2022-08-23T08:36:39.697Z,98043.15
2022-08-23T08:39:47.911Z,98044.48
2022-08-23T08:43:05.790Z,98055.39
2022-08-23T08:46:33.187Z,98054.34
2022-08-23T08:49:49.820Z,98056.33
2022-08-23T08:53:07.549Z,98058.20
2022-08-23T08:56:34.326Z,98060.26
2022-08-23T08:59:59.764Z,98066.37
2022-08-23T09:03:09.426Z,98071.02
2022-08-23T09:06:21.834Z,98076.20
2022-08-23T09:09:52.442Z,98078.69
2022-08-23T09:13:08.730Z,98080.30
2022-08-23T09:16:23.040Z,98080.60
2022-08-23T09:19:26.150Z,98082.02
2022-08-23T09:22:37.763Z,98080.33
2022-08-23T09:25:54.411Z,98087.96
2022-08-23T09:29:18.877Z,98091.52
2022-08-23T09:32:37.730Z,98092.95
2022-08-23T09:35:43.860Z,98095.05
2022-08-23T09:39:01.394Z,98099.80
2022-08-23T09:42:25.590Z,98101.14
2022-08-23T09:45:43.888Z,98105.16
2022-08-23T09:48:47.500Z,98104.69
2022-08-23T09:51:58.890Z,98106.13
2022-08-23T09:55:08.979Z,98108.60
2022-08-23T09:58:37.084Z,98105.24
2022-08-23T10:06:11.527Z,98108.08
2022-08-23T10:09:36.807Z,98106.55
2022-08-23T10:12:45.572Z,98106.87
2022-08-23T10:17:08.080Z,98113.08
2022-08-23T10:22:05.142Z,98116.83
2022-08-23T10:29:41.643Z,98119.96
2022-08-23T10:33:21.414Z,98119.95
2022-08-23T10:36:44.678Z,98120.60
2022-08-23T10:40:15.931Z,98118.81
2022-08-23T10:43:46.596Z,98118.62
2022-08-23T10:47:44.762Z,98122.35
2022-08-23T10:54:46.277Z,98129.10
2022-08-23T10:58:09.146Z,98133.17
2022-08-23T11:01:28.890Z,98133.25
2022-08-23T11:04:51.467Z,98125.25
2022-08-23T11:08:05.914Z,98124.95
2022-08-23T11:11:47.357Z,98126.61
2022-08-23T11:15:14.004Z,98121.13
2022-08-23T11:18:34.039Z,98121.10
2022-08-23T11:21:40.029Z,98125.34
2022-08-23T11:25:13.345Z,98123.22
2022-08-23T11:28:23.501Z,98124.99
2022-08-23T11:31:34.859Z,98127.48
2022-08-23T11:34:49.944Z,98129.98
2022-08-23T11:38:03.864Z,98131.23
2022-08-23T11:41:14.867Z,98129.73
2022-08-23T11:44:32.840Z,98129.20
2022-08-23T11:47:44.490Z,98126.31
2022-08-23T11:50:59.986Z,98130.98
2022-08-23T11:58:16.220Z,98132.91
2022-08-23T12:01:38.966Z,98134.04
2022-08-23T12:04:52.656Z,98133.83
2022-08-23T12:08:01.950Z,98137.42
2022-08-23T12:11:09.126Z,98136.11
2022-08-23T12:14:51.531Z,98135.92
2022-08-23T12:17:57.243Z,98139.85
2022-08-23T12:21:07.336Z,98135.77
2022-08-23T12:24:19.596Z,98134.70
2022-08-23T12:27:37.703Z,98136.65
2022-08-23T12:30:57.824Z,98138.96
2022-08-23T12:34:27.762Z,98139.14
2022-08-23T12:37:39.477Z,98140.20
2022-08-23T12:40:48.674Z,98142.48
2022-08-23T12:44:28.920Z,98141.09
2022-08-23T12:47:32.880Z,98143.56
2022-08-23T12:50:51.234Z,98141.89
2022-08-23T12:53:54.457Z,98138.96
2022-08-23T12:57:22.228Z,98139.52
2022-08-23T13:00:53.722Z,98140.23
2022-08-23T13:04:27.348Z,98138.75
2022-08-23T13:07:51.153Z,98145.29
2022-08-23T13:10:58.922Z,98147.33
2022-08-23T13:14:24.587Z,98145.13
2022-08-23T13:17:27.671Z,98146.86
2022-08-23T13:20:31.339Z,98144.21
2022-08-23T13:23:34.363Z,98139.55
2022-08-23T13:26:42.953Z,98141.37
2022-08-23T13:30:00.940Z,98139.90
2022-08-23T13:33:04.265Z,98138.73
2022-08-23T13:36:25.358Z,98137.42
2022-08-23T13:39:31.977Z,98134.80
2022-08-23T13:42:51.090Z,98133.64
2022-08-23T13:45:59.844Z,98132.50
2022-08-23T13:49:13.607Z,98137.32
2022-08-23T13:52:45.888Z,98136.02
2022-08-23T13:55:51.940Z,98138.73
2022-08-23T13:59:13.886Z,98137.98
2022-08-23T14:02:25.110Z,98139.26
2022-08-23T14:05:29.053Z,98140.66
2022-08-23T14:08:36.063Z,98142.08
2022-08-23T14:11:41.794Z,98140.61
2022-08-23T14:14:45.844Z,98143.75
2022-08-23T14:17:52.236Z,98143.15
2022-08-23T14:21:03.736Z,98139.48
2022-08-23T14:24:06.904Z,98143.25
2022-08-23T14:27:14.202Z,98138.48
2022-08-23T14:30:29.411Z,98133.00
2022-08-23T14:33:41.236Z,98124.20
2022-08-23T14:37:21.677Z,98130.66
2022-08-23T14:40:09.498Z,98129.42
2022-08-23T14:43:12.613Z,98132.33
2022-08-23T14:46:16.368Z,98136.92
2022-08-23T14:49:20.762Z,98138.84
2022-08-23T14:52:23.815Z,98145.76
2022-08-23T14:55:27.405Z,98150.05
2022-08-23T14:58:41.986Z,98147.17
2022-08-23T15:01:47.755Z,98149.78
2022-08-23T15:04:51.381Z,98146.88
2022-08-23T15:07:54.421Z,98143.83
2022-08-23T15:14:20.602Z,98149.61
2022-08-23T15:17:28.765Z,98155.03
2022-08-23T15:20:37.689Z,98161.80
2022-08-23T15:23:42.353Z,98167.23
2022-08-23T15:26:45.873Z,98168.35
2022-08-23T15:29:48.958Z,98172.23
2022-08-23T15:32:56.647Z,98170.59
2022-08-23T15:36:08.452Z,98172.58
2022-08-23T15:39:11.388Z,98171.46
2022-08-23T15:42:18.520Z,98173.60
2022-08-23T15:45:23.850Z,98173.21
2022-08-23T15:48:43.842Z,98177.36
2022-08-23T15:51:46.953Z,98183.35
2022-08-23T15:54:49.918Z,98187.77
2022-08-23T15:57:53.812Z,98190.34
2022-08-23T16:00:56.873Z,98190.56
2022-08-23T16:04:02.125Z,98193.38
2022-08-23T16:07:07.329Z,98189.75
2022-08-23T16:10:13.103Z,98190.86
2022-08-23T16:13:16.273Z,98190.55
2022-08-23T16:16:30.292Z,98195.52
2022-08-23T16:19:33.372Z,98198.31
2022-08-23T16:22:37.543Z,98196.19
2022-08-23T16:25:41.421Z,98198.71
2022-08-23T16:28:45.811Z,98203.05
2022-08-23T16:31:48.961Z,98199.33
2022-08-23T16:34:51.926Z,98198.21
2022-08-23T16:37:54.952Z,98198.37
2022-08-23T16:40:58.996Z,98206.65
2022-08-23T16:44:02.049Z,98209.34
2022-08-23T16:47:07.950Z,98214.27
2022-08-23T16:50:12.349Z,98219.04
2022-08-23T16:53:15.829Z,98224.48
2022-08-23T16:56:19.299Z,98225.05
2022-08-23T16:59:22.667Z,98224.34
2022-08-23T17:02:30.860Z,98227.11
2022-08-23T17:05:35.222Z,98229.01
2022-08-23T17:08:38.419Z,98231.14
2022-08-23T17:11:43.830Z,98236.60
2022-08-23T17:15:11.816Z,98231.81
2022-08-23T17:18:14.864Z,98229.89
2022-08-23T17:21:18.098Z,98233.17
2022-08-23T17:24:21.440Z,98236.63
2022-08-23T17:27:24.702Z,98245.12
2022-08-23T17:30:28.836Z,98252.73
2022-08-23T17:33:39.490Z,98260.30
2022-08-23T17:36:55.264Z,98268.34
2022-08-23T17:40:12.504Z,98273.94
2022-08-23T17:43:17.020Z,98282.02
2022-08-23T17:46:20.505Z,98288.17
2022-08-23T17:49:23.584Z,98291.09
2022-08-23T17:52:27.263Z,98292.32
2022-08-23T17:55:33.262Z,98289.61
2022-08-23T17:58:36.419Z,98291.33
2022-08-23T18:01:40.301Z,98291.38
2022-08-23T18:04:43.261Z,98297.89
2022-08-23T18:07:46.352Z,98298.21
2022-08-23T18:10:49.295Z,98307.45
2022-08-23T18:13:53.181Z,98318.01
2022-08-23T18:16:57.482Z,98321.52
2022-08-23T18:20:00.881Z,98327.94
2022-08-23T18:23:05.051Z,98327.52
2022-08-23T18:26:46.943Z,98328.69
2022-08-23T18:29:51.425Z,98325.67
2022-08-23T18:32:55.099Z,98326.50
2022-08-23T18:35:58.203Z,98328.10
2022-08-23T18:39:03.154Z,98323.75
2022-08-23T18:42:08.405Z,98328.22
2022-08-23T18:45:11.853Z,98333.52
2022-08-23T18:48:17.295Z,98337.26
2022-08-23T18:51:29.720Z,98336.92
2022-08-23T18:54:39.004Z,98342.34
2022-08-23T18:57:43.283Z,98341.86
2022-08-23T19:00:55.985Z,98341.61
2022-08-23T19:04:01.881Z,98343.72
2022-08-23T19:07:05.311Z,98346.64
2022-08-23T19:10:09.349Z,98348.95
2022-08-23T19:13:12.611Z,98347.84
2022-08-23T19:16:16.130Z,98352.60
2022-08-23T19:19:21.256Z,98358.91
2022-08-23T19:22:29.784Z,98368.98
2022-08-23T19:25:34.079Z,98380.90
2022-08-23T19:28:39.260Z,98385.36
2022-08-23T19:31:45.511Z,98388.45
2022-08-23T19:34:48.594Z,98387.50
2022-08-23T19:37:51.685Z,98385.73
2022-08-23T19:40:58.671Z,98382.98
2022-08-23T19:44:02.610Z,98379.27
2022-08-23T19:47:07.428Z,98382.45
2022-08-23T19:50:24.234Z,98392.16
2022-08-23T19:53:30.373Z,98399.41
2022-08-23T19:56:37.848Z,98406.43
2022-08-23T19:59:41.290Z,98403.16
2022-08-23T20:02:44.642Z,98401.70
2022-08-23T20:05:47.997Z,98399.89
2022-08-23T20:08:51.426Z,98402.41
2022-08-23T20:11:55.385Z,98405.50
2022-08-23T20:14:58.796Z,98407.33
2022-08-23T20:18:02.286Z,98405.84
2022-08-23T20:21:06.037Z,98407.88
2022-08-23T20:24:11.951Z,98409.96
2022-08-23T20:27:28.369Z,98410.55
2022-08-23T20:30:35.691Z,98410.95
2022-08-23T20:33:38.584Z,98408.20
2022-08-23T20:36:41.508Z,98404.80
2022-08-23T20:39:44.481Z,98402.58
2022-08-23T20:42:47.605Z,98408.41
2022-08-23T20:45:50.488Z,98420.70
2022-08-23T20:48:54.333Z,98423.52
2022-08-23T20:52:03.966Z,98419.13
2022-08-23T20:55:10.674Z,98414.45
2022-08-23T20:58:14.013Z,98410.88
2022-08-23T21:01:17.826Z,98406.45
2022-08-23T21:04:21.565Z,98401.91
2022-08-23T21:07:33.076Z,98404.05
2022-08-23T21:10:35.957Z,98408.20
2022-08-23T21:13:44.347Z,98410.91
2022-08-23T21:16:47.953Z,98405.23
2022-08-23T21:19:50.919Z,98403.40
2022-08-23T21:22:53.785Z,98400.20
2022-08-23T21:25:58.214Z,98404.15
2022-08-23T21:29:01.960Z,98403.89
2022-08-23T21:32:08.315Z,98401.48
2022-08-23T21:35:11.616Z,98398.22
2022-08-23T21:38:15.031Z,98395.80
2022-08-23T21:41:30.690Z,98392.08
2022-08-23T21:44:33.849Z,98391.12
2022-08-23T21:47:37.418Z,98390.09
2022-08-23T21:50:41.028Z,98383.69
2022-08-23T21:53:47.249Z,98382.35
2022-08-23T21:56:50.412Z,98383.69
2022-08-23T21:59:55.265Z,98383.59
2022-08-23T22:02:58.407Z,98384.86
2022-08-23T22:06:02.097Z,98379.89
2022-08-23T22:09:07.011Z,98376.48
2022-08-23T22:12:09.965Z,98376.89
2022-08-23T22:15:13.325Z,98377.98
2022-08-23T22:18:16.231Z,98373.84
2022-08-23T22:21:19.163Z,98378.96
2022-08-23T22:24:25.896Z,98375.67
2022-08-23T22:27:29.706Z,98378.84
2022-08-23T22:30:32.672Z,98370.02
2022-08-23T22:33:35.637Z,98369.16
2022-08-23T22:36:39.075Z,98371.30
2022-08-23T22:39:42.032Z,98372.52
2022-08-23T22:42:45.109Z,98375.23
2022-08-23T22:45:51.014Z,98373.42
2022-08-23T22:48:54.807Z,98378.79
2022-08-23T22:51:58.421Z,98382.20
2022-08-23T22:55:01.443Z,98382.27
2022-08-23T22:58:04.481Z,98375.94
2022-08-23T23:01:13.287Z,98375.84
2022-08-23T23:04:18.634Z,98374.44
2022-08-23T23:07:41.936Z,98377.63
2022-08-23T23:10:44.873Z,98382.70
2022-08-23T23:13:48.697Z,98380.17
2022-08-23T23:16:53.230Z,98376.29
2022-08-23T23:20:14.893Z,98382.34
2022-08-23T23:23:20.579Z,98386.14
2022-08-23T23:26:23.442Z,98384.94
2022-08-23T23:29:27.369Z,98384.29
2022-08-23T23:32:30.264Z,98389.19
2022-08-23T23:35:34.448Z,98394.79
2022-08-23T23:38:38.206Z,98394.34
2022-08-23T23:41:41.826Z,98388.70
2022-08-23T23:44:44.755Z,98386.89
2022-08-23T23:47:48.060Z,98375.41
2022-08-23T23:50:50.956Z,98367.31
2022-08-23T23:53:56.124Z,98365.92
2022-08-23T23:56:59.126Z,98367.54
